EDFM/MHG METAR and TAF weather

Enter ICAO airport designator
Station Type Date Time Source
EDFM METAR 2019/08/19 22:20 UTC NOAA

EDFM 192220Z 34003KT CAVOK 19/11 Q1020


Station Type Date Time Source
EDFM Decoded METAR 2019/08/19 22:20 UTC NOAA

Baden Wurttemberg, Neuostheim, Germany (EDFM) 49-28-21N 008-30-56E
Aug 19, 2019 - 06:20 PM EDT / 2019.08.19 2220 UTC
Wind: from the NNW (340 degrees) at 3 MPH (3 KT):0
Visibility: greater than 7 mile(s):0
Temperature: 66 F (19 C)
Dew Point: 51 F (11 C)
Relative Humidity: 59%
Pressure (altimeter): 30.12 in. Hg (1020 hPa)
ob: EDFM 192220Z 34003KT CAVOK 19/11 Q1020
cycle: 22

Station Type Date Time Source
EDFM TAF 2012/03/06 06:30 UTC NOAA

TAF EDFM 060519Z 0606/0621 15004KT 9999 FEW040

Example: see airport list